createdAt,value
2022-08-05T00:01:54.639Z,21.30
2022-08-05T00:04:21.766Z,21.20
2022-08-05T00:06:51.864Z,21.10
2022-08-05T00:09:19.551Z,21.00
2022-08-05T00:11:47.295Z,21.00
2022-08-05T00:14:17.194Z,21.00
2022-08-05T00:16:52.561Z,21.10
2022-08-05T00:19:24.858Z,21.00
2022-08-05T00:22:00.219Z,21.10
2022-08-05T00:24:31.094Z,21.10
2022-08-05T00:27:00.489Z,21.20
2022-08-05T00:29:37.753Z,21.20
2022-08-05T00:32:13.364Z,21.20
2022-08-05T00:35:04.788Z,21.20
2022-08-05T00:37:51.036Z,21.20
2022-08-05T00:40:27.733Z,21.20
2022-08-05T00:42:58.372Z,21.30
2022-08-05T00:45:39.027Z,21.20
2022-08-05T00:48:16.491Z,21.20
2022-08-05T00:50:45.989Z,21.20
2022-08-05T00:53:59.933Z,21.20
2022-08-05T00:56:03.336Z,21.20
2022-08-05T00:58:30.272Z,21.20
2022-08-05T01:00:57.583Z,21.20
2022-08-05T01:03:30.971Z,21.30
2022-08-05T01:06:00.642Z,21.30
2022-08-05T01:08:40.390Z,21.20
2022-08-05T01:11:33.609Z,21.20
2022-08-05T01:14:15.420Z,21.30
2022-08-05T01:16:57.007Z,21.30
2022-08-05T01:19:46.342Z,21.30
2022-08-05T01:22:28.025Z,21.20
2022-08-05T01:25:10.393Z,21.20
2022-08-05T01:28:08.886Z,21.20
2022-08-05T01:30:39.908Z,21.10
2022-08-05T01:33:22.141Z,21.10
2022-08-05T01:35:57.459Z,21.00
2022-08-05T01:38:29.097Z,21.00
2022-08-05T01:41:01.911Z,21.00
2022-08-05T01:43:30.622Z,21.00
2022-08-05T01:46:07.410Z,20.90
2022-08-05T01:48:49.445Z,20.90
2022-08-05T01:51:18.878Z,20.90
2022-08-05T01:53:57.886Z,20.90
2022-08-05T01:58:10.212Z,20.90
2022-08-05T01:59:28.017Z,20.90
2022-08-05T02:02:00.025Z,20.90
2022-08-05T02:04:28.839Z,20.90
2022-08-05T02:06:59.001Z,20.90
2022-08-05T02:09:26.684Z,20.90
2022-08-05T02:12:12.948Z,20.90
2022-08-05T02:15:17.326Z,20.90
2022-08-05T02:18:28.384Z,20.90
2022-08-05T02:21:14.989Z,20.90
2022-08-05T02:23:46.566Z,20.80
2022-08-05T02:26:22.148Z,20.80
2022-08-05T02:28:50.610Z,20.80
2022-08-05T02:31:26.876Z,20.80
2022-08-05T02:33:59.619Z,20.80
2022-08-05T02:36:31.606Z,20.80
2022-08-05T02:39:01.624Z,20.80
2022-08-05T02:41:43.296Z,20.80
2022-08-05T02:44:19.531Z,20.80
2022-08-05T02:46:58.360Z,20.80
2022-08-05T02:49:36.878Z,20.80
2022-08-05T02:52:29.666Z,20.80
2022-08-05T02:55:05.374Z,20.80
2022-08-05T02:58:10.337Z,20.80
2022-08-05T03:00:21.946Z,20.80
2022-08-05T03:02:49.717Z,20.70
2022-08-05T03:06:52.353Z,20.70
2022-08-05T03:08:08.583Z,20.70
2022-08-05T03:10:36.018Z,20.60
2022-08-05T03:13:12.281Z,20.70
2022-08-05T03:15:48.138Z,20.60
2022-08-05T03:18:18.874Z,20.60
2022-08-05T03:20:57.077Z,20.70
2022-08-05T03:23:28.269Z,20.70
2022-08-05T03:26:04.366Z,20.70
2022-08-05T03:28:46.659Z,20.80
2022-08-05T03:31:18.234Z,20.80
2022-08-05T03:34:01.889Z,20.70
2022-08-05T03:36:30.171Z,20.70
2022-08-05T03:38:58.223Z,20.70
2022-08-05T03:41:25.332Z,20.70
2022-08-05T03:44:10.288Z,20.80
2022-08-05T03:46:38.865Z,20.80
2022-08-05T03:49:06.552Z,20.80
2022-08-05T03:52:50.547Z,20.70
2022-08-05T03:55:00.365Z,20.50
2022-08-05T03:57:43.653Z,20.50
2022-08-05T04:00:16.418Z,20.50
2022-08-05T04:02:52.002Z,20.50
2022-08-05T04:05:34.652Z,20.40
2022-08-05T04:08:30.106Z,20.30
2022-08-05T04:10:55.616Z,20.40
2022-08-05T04:13:23.502Z,20.40
2022-08-05T04:15:52.651Z,20.40
2022-08-05T04:18:32.221Z,20.40
2022-08-05T04:21:02.113Z,20.40
2022-08-05T04:24:05.344Z,20.30
2022-08-05T04:26:18.974Z,20.40
2022-08-05T04:28:50.884Z,20.50
2022-08-05T04:31:20.442Z,20.50
2022-08-05T04:34:17.302Z,20.50
2022-08-05T04:36:44.940Z,20.50
2022-08-05T04:39:18.269Z,20.40
2022-08-05T04:41:46.128Z,20.30
2022-08-05T04:44:21.332Z,20.20
2022-08-05T04:46:58.668Z,20.20
2022-08-05T04:49:39.260Z,20.20
2022-08-05T04:52:14.065Z,20.20
2022-08-05T04:54:42.272Z,20.20
2022-08-05T04:57:09.185Z,20.10
2022-08-05T04:59:39.168Z,20.20
2022-08-05T05:02:37.254Z,20.30
2022-08-05T05:05:02.112Z,20.40
2022-08-05T05:07:32.754Z,20.40
2022-08-05T05:10:05.410Z,20.50
2022-08-05T05:12:33.588Z,20.50
2022-08-05T05:15:04.935Z,20.60
2022-08-05T05:17:57.159Z,20.60
2022-08-05T05:20:28.131Z,20.70
2022-08-05T05:22:56.911Z,20.80
2022-08-05T05:25:32.629Z,20.80
2022-08-05T05:27:59.911Z,20.90
2022-08-05T05:30:31.305Z,21.00
2022-08-05T05:33:09.321Z,21.10
2022-08-05T05:35:47.646Z,21.20
2022-08-05T05:38:22.736Z,21.20
2022-08-05T05:40:57.392Z,21.30
2022-08-05T05:43:54.645Z,21.40
2022-08-05T05:46:17.203Z,21.40
2022-08-05T05:48:47.920Z,21.50
2022-08-05T05:51:25.965Z,21.60
2022-08-05T05:53:58.524Z,22.40
2022-08-05T05:56:33.325Z,23.70
2022-08-05T05:59:05.874Z,24.90
2022-08-05T06:01:38.251Z,25.30
2022-08-05T06:04:12.628Z,25.20
2022-08-05T06:06:42.722Z,24.90
2022-08-05T06:09:17.452Z,24.60
2022-08-05T06:12:02.140Z,24.50
2022-08-05T06:14:30.989Z,24.40
2022-08-05T06:16:58.570Z,24.50
2022-08-05T06:19:34.759Z,24.50
2022-08-05T06:22:04.247Z,24.40
2022-08-05T06:24:34.199Z,24.30
2022-08-05T06:27:02.367Z,24.10
2022-08-05T06:29:46.768Z,23.80
2022-08-05T06:32:26.412Z,23.60
2022-08-05T06:34:58.584Z,23.40
2022-08-05T06:37:57.746Z,23.10
2022-08-05T06:40:18.391Z,22.90
2022-08-05T06:42:52.126Z,22.70
2022-08-05T06:45:21.198Z,22.50
2022-08-05T06:48:44.067Z,22.30
2022-08-05T06:50:54.210Z,22.20
2022-08-05T06:53:27.825Z,22.00
2022-08-05T06:56:00.597Z,21.80
2022-08-05T06:58:34.754Z,21.60
2022-08-05T07:01:04.673Z,21.40
2022-08-05T07:03:33.223Z,21.40
2022-08-05T07:06:06.256Z,21.30
2022-08-05T07:08:47.628Z,21.10
2022-08-05T07:11:16.152Z,21.10
2022-08-05T07:14:01.950Z,21.00
2022-08-05T07:17:56.863Z,21.00
2022-08-05T07:22:28.662Z,21.00
2022-08-05T07:25:22.046Z,20.90
2022-08-05T07:27:58.502Z,21.00
2022-08-05T07:30:38.404Z,21.00
2022-08-05T07:33:10.405Z,21.10
2022-08-05T07:36:04.527Z,21.10
2022-08-05T07:38:33.357Z,21.20
2022-08-05T07:42:07.407Z,21.30
2022-08-05T07:43:57.090Z,21.30
2022-08-05T07:46:28.949Z,21.20
2022-08-05T07:49:02.569Z,21.10
2022-08-05T07:51:40.594Z,21.20
2022-08-05T07:54:26.556Z,21.20
2022-08-05T07:57:01.603Z,21.20
2022-08-05T07:59:42.047Z,21.30
2022-08-05T08:02:15.624Z,21.50
2022-08-05T08:04:48.348Z,21.40
2022-08-05T08:07:22.489Z,21.50
2022-08-05T08:09:52.105Z,21.50
2022-08-05T08:12:33.508Z,21.40
2022-08-05T08:15:14.122Z,21.40
2022-08-05T08:17:49.664Z,21.40
2022-08-05T08:20:59.921Z,21.40
2022-08-05T08:23:59.985Z,21.60
2022-08-05T08:26:00.145Z,21.80
2022-08-05T08:28:36.311Z,22.10
2022-08-05T08:31:09.677Z,22.30
2022-08-05T08:33:41.989Z,22.40
2022-08-05T08:36:38.404Z,22.50
2022-08-05T08:38:57.947Z,22.70
2022-08-05T08:41:50.764Z,22.80
2022-08-05T08:45:23.097Z,23.10
2022-08-05T08:47:21.820Z,23.30
2022-08-05T08:50:07.632Z,23.60
2022-08-05T08:52:54.264Z,23.60
2022-08-05T08:56:02.006Z,23.70
2022-08-05T08:58:12.889Z,23.80
2022-08-05T09:00:41.273Z,24.00
2022-08-05T09:03:09.761Z,24.20
2022-08-05T09:05:38.782Z,24.30
2022-08-05T09:08:27.445Z,24.40
2022-08-05T09:10:57.707Z,24.70
2022-08-05T09:13:24.855Z,25.20
2022-08-05T09:15:58.790Z,25.20
2022-08-05T09:18:26.178Z,25.20
2022-08-05T09:20:53.103Z,25.20
2022-08-05T09:23:23.458Z,25.10
2022-08-05T09:26:20.620Z,25.10
2022-08-05T09:28:49.387Z,25.00
2022-08-05T09:31:23.192Z,25.00
2022-08-05T09:34:11.595Z,24.80
2022-08-05T09:36:56.132Z,24.50
2022-08-05T09:39:41.228Z,24.50
2022-08-05T09:42:23.884Z,24.40
2022-08-05T09:44:57.421Z,24.40
2022-08-05T09:47:46.531Z,24.40
2022-08-05T09:50:38.759Z,24.50
2022-08-05T09:53:12.035Z,24.70
2022-08-05T09:55:57.169Z,24.80
2022-08-05T09:58:29.185Z,24.90
2022-08-05T10:01:13.549Z,24.90
2022-08-05T10:04:03.668Z,24.90
2022-08-05T10:06:31.887Z,24.80
2022-08-05T10:09:28.384Z,24.70
2022-08-05T10:12:30.039Z,24.60
2022-08-05T10:15:34.282Z,24.40
2022-08-05T10:18:09.097Z,24.30
2022-08-05T10:20:42.635Z,24.30
2022-08-05T10:23:55.436Z,24.20
2022-08-05T10:26:13.928Z,24.20
2022-08-05T10:28:42.642Z,24.00
2022-08-05T10:32:48.095Z,23.90
2022-08-05T10:34:00.468Z,23.80
2022-08-05T10:36:28.282Z,23.80
2022-08-05T10:39:05.256Z,23.70
2022-08-05T10:41:50.782Z,23.70
2022-08-05T10:44:20.236Z,23.70
2022-08-05T10:46:50.626Z,23.70
2022-08-05T10:49:27.132Z,23.80
2022-08-05T10:52:03.233Z,23.90
2022-08-05T10:54:56.144Z,23.90
2022-08-05T10:57:29.396Z,23.90
2022-08-05T11:00:23.201Z,23.90
2022-08-05T11:03:00.341Z,24.00
2022-08-05T11:06:04.386Z,24.00
2022-08-05T11:08:37.128Z,23.80
2022-08-05T11:11:44.684Z,23.70
2022-08-05T11:14:57.385Z,23.80
2022-08-05T11:18:00.451Z,23.90
2022-08-05T11:20:39.195Z,24.00
2022-08-05T11:23:33.297Z,24.00
2022-08-05T11:26:28.311Z,24.00
2022-08-05T11:29:11.798Z,24.10
2022-08-05T11:31:54.503Z,24.40
2022-08-05T11:34:51.393Z,24.80
2022-08-05T11:38:26.118Z,25.00
2022-08-05T11:41:15.471Z,25.20
2022-08-05T11:44:05.963Z,25.40
2022-08-05T11:46:58.217Z,25.50
2022-08-05T11:49:34.081Z,25.50
2022-08-05T11:52:01.894Z,25.20
2022-08-05T11:54:40.472Z,25.00
2022-08-05T11:57:24.273Z,24.70
2022-08-05T11:59:53.551Z,24.50
2022-08-05T12:02:33.030Z,24.20
2022-08-05T12:05:07.010Z,24.00
2022-08-05T12:08:03.226Z,23.80
2022-08-05T12:10:38.586Z,23.60
2022-08-05T12:13:47.318Z,23.50
2022-08-05T12:16:14.763Z,23.10
2022-08-05T12:18:49.465Z,22.80
2022-08-05T12:21:21.580Z,22.50
2022-08-05T12:24:04.982Z,22.30
2022-08-05T12:26:36.515Z,22.20
2022-08-05T12:29:09.858Z,22.00
2022-08-05T12:31:53.078Z,21.80
2022-08-05T12:34:24.005Z,21.80
2022-08-05T12:36:54.078Z,21.90
2022-08-05T12:39:22.116Z,21.90
2022-08-05T12:41:50.973Z,21.90
2022-08-05T12:44:33.902Z,21.90
2022-08-05T12:47:02.296Z,21.70
2022-08-05T12:50:03.698Z,21.60
2022-08-05T12:52:39.004Z,21.40
2022-08-05T12:55:25.559Z,21.30
2022-08-05T12:58:38.769Z,21.30
2022-08-05T13:02:01.797Z,21.30
2022-08-05T13:03:32.539Z,21.10
2022-08-05T13:06:01.262Z,21.00
2022-08-05T13:08:32.328Z,20.90
2022-08-05T13:11:01.340Z,20.90
2022-08-05T13:14:06.468Z,21.00
2022-08-05T13:16:17.289Z,21.00
2022-08-05T13:18:58.530Z,21.20
2022-08-05T13:21:28.506Z,21.40
2022-08-05T13:24:13.767Z,21.60
2022-08-05T13:26:54.785Z,21.70
2022-08-05T13:29:37.267Z,21.80
2022-08-05T13:32:05.630Z,21.90
2022-08-05T13:34:33.156Z,21.90
2022-08-05T13:37:00.644Z,21.70
2022-08-05T13:40:16.647Z,21.50
2022-08-05T13:42:24.202Z,21.50
2022-08-05T13:44:53.397Z,21.50
2022-08-05T13:47:34.832Z,21.40
2022-08-05T13:50:06.468Z,21.40
2022-08-05T13:52:39.827Z,21.40
2022-08-05T13:55:09.823Z,21.40
2022-08-05T13:57:51.440Z,21.50
2022-08-05T14:00:27.262Z,21.50
2022-08-05T14:02:56.911Z,21.60
2022-08-05T14:05:48.508Z,21.70
2022-08-05T14:08:21.242Z,21.80
2022-08-05T14:10:59.724Z,21.90
2022-08-05T14:13:35.061Z,22.10
2022-08-05T14:23:33.696Z,22.10
2022-08-05T14:26:04.943Z,22.20
2022-08-05T14:28:33.415Z,22.30
2022-08-05T14:31:01.769Z,22.40
2022-08-05T14:33:57.021Z,22.50
2022-08-05T14:36:21.313Z,22.60
2022-08-05T14:38:49.434Z,22.60
2022-08-05T14:41:17.817Z,22.70
2022-08-05T14:43:59.539Z,22.70
2022-08-05T14:46:31.404Z,22.80
2022-08-05T14:49:06.195Z,22.90
2022-08-05T14:51:38.863Z,22.90
2022-08-05T14:54:27.548Z,22.80
2022-08-05T14:56:57.212Z,22.80
2022-08-05T14:59:24.837Z,22.80
2022-08-05T15:01:53.770Z,22.90
2022-08-05T15:04:22.363Z,23.20
2022-08-05T15:06:52.970Z,23.00
2022-08-05T15:09:52.316Z,23.10
2022-08-05T15:12:08.903Z,23.10
2022-08-05T15:14:48.019Z,23.10
2022-08-05T15:17:47.675Z,23.20
2022-08-05T15:20:06.020Z,23.40
2022-08-05T15:22:33.147Z,23.60
2022-08-05T15:25:00.524Z,23.70
2022-08-05T15:27:38.956Z,23.80
2022-08-05T15:30:11.024Z,23.80
2022-08-05T15:32:41.202Z,23.80
2022-08-05T15:35:09.806Z,23.60
2022-08-05T15:38:34.952Z,23.50
2022-08-05T15:41:00.646Z,23.20
2022-08-05T15:43:20.308Z,23.10
2022-08-05T15:45:47.721Z,23.00
2022-08-05T15:48:26.872Z,23.20
2022-08-05T15:50:53.831Z,23.00
2022-08-05T15:53:23.333Z,23.00
2022-08-05T15:56:02.529Z,23.00
2022-08-05T15:58:36.842Z,23.00
2022-08-05T16:01:17.112Z,23.10
2022-08-05T16:03:50.862Z,23.30
2022-08-05T16:06:20.448Z,23.40
2022-08-05T16:08:51.091Z,23.60
2022-08-05T16:11:20.834Z,23.80
2022-08-05T16:14:06.742Z,23.80
2022-08-05T16:16:35.290Z,23.90
2022-08-05T16:19:02.497Z,23.80
2022-08-05T16:22:00.136Z,23.90
2022-08-05T16:24:41.507Z,24.00
2022-08-05T16:27:07.356Z,23.80
2022-08-05T16:29:37.454Z,23.80
2022-08-05T16:32:06.435Z,23.80
2022-08-05T16:34:33.641Z,23.90
2022-08-05T16:37:00.628Z,23.90
2022-08-05T16:40:04.614Z,24.00
2022-08-05T16:42:18.440Z,24.00
2022-08-05T16:44:54.236Z,24.00
2022-08-05T16:47:28.791Z,23.90
2022-08-05T16:50:05.654Z,23.80
2022-08-05T16:52:33.635Z,23.80
2022-08-05T16:55:00.910Z,23.70
2022-08-05T16:57:53.230Z,23.60
2022-08-05T17:00:33.943Z,23.40
2022-08-05T17:03:15.323Z,23.20
2022-08-05T17:05:53.966Z,23.00
2022-08-05T17:08:36.310Z,22.80
2022-08-05T17:11:17.215Z,22.70
2022-08-05T17:13:45.451Z,22.60
2022-08-05T17:16:29.653Z,22.50
2022-08-05T17:19:00.779Z,22.40
2022-08-05T17:21:35.633Z,22.40
2022-08-05T17:24:30.234Z,22.40
2022-08-05T17:26:57.661Z,22.30
2022-08-05T17:29:34.064Z,22.20
2022-08-05T17:32:11.355Z,22.20
2022-08-05T17:34:39.755Z,22.10
2022-08-05T17:37:29.443Z,22.00
2022-08-05T17:39:55.842Z,22.00
2022-08-05T17:42:28.328Z,21.90
2022-08-05T17:44:56.901Z,21.90
2022-08-05T17:47:23.807Z,21.90
2022-08-05T17:50:03.615Z,21.90
2022-08-05T17:52:34.904Z,21.80
2022-08-05T17:55:21.485Z,21.70
2022-08-05T17:57:50.294Z,21.80
2022-08-05T18:00:18.538Z,21.90
2022-08-05T18:02:47.255Z,22.00
2022-08-05T18:05:17.481Z,21.90
2022-08-05T18:07:44.802Z,21.90
2022-08-05T18:10:14.055Z,21.90
2022-08-05T18:12:49.280Z,21.80
2022-08-05T18:15:16.236Z,21.80
2022-08-05T18:18:00.751Z,21.80
2022-08-05T18:20:31.602Z,21.80
2022-08-05T18:23:08.986Z,21.70
2022-08-05T18:25:45.403Z,21.70
2022-08-05T18:28:17.549Z,21.60
2022-08-05T18:30:45.867Z,21.60
2022-08-05T18:33:22.558Z,21.60
2022-08-05T18:36:03.711Z,21.50
2022-08-05T18:38:36.185Z,21.50
2022-08-05T18:41:58.283Z,21.50
2022-08-05T18:43:52.664Z,21.50
2022-08-05T18:46:20.694Z,21.50
2022-08-05T18:48:52.296Z,21.50
2022-08-05T18:52:05.358Z,21.40
2022-08-05T18:54:31.684Z,21.40
2022-08-05T18:57:02.428Z,21.30
2022-08-05T18:59:43.652Z,21.30
2022-08-05T19:02:26.754Z,21.30
2022-08-05T19:05:02.432Z,21.20
2022-08-05T19:07:46.197Z,21.10
2022-08-05T19:10:28.063Z,21.00
2022-08-05T19:12:56.666Z,20.80
2022-08-05T19:15:57.511Z,20.70
2022-08-05T19:18:13.561Z,20.50
2022-08-05T19:20:53.701Z,20.40
2022-08-05T19:24:03.642Z,20.20
2022-08-05T19:26:09.138Z,20.10
2022-08-05T19:28:41.853Z,19.90
2022-08-05T19:31:12.930Z,19.80
2022-08-05T19:33:48.722Z,19.60
2022-08-05T19:36:29.273Z,19.60
2022-08-05T19:39:00.866Z,19.40
2022-08-05T19:41:58.250Z,19.30
2022-08-05T19:44:18.531Z,19.20
2022-08-05T19:46:45.881Z,19.10
2022-08-05T19:49:17.215Z,19.00
2022-08-05T19:52:08.885Z,18.90
2022-08-05T19:54:34.843Z,18.80
2022-08-05T19:57:09.476Z,18.80
2022-08-05T19:59:56.657Z,18.70
2022-08-05T20:02:27.125Z,18.60
2022-08-05T20:04:58.671Z,18.50
2022-08-05T20:07:45.687Z,18.40
2022-08-05T20:10:16.427Z,18.40
2022-08-05T20:12:47.625Z,18.30
2022-08-05T20:15:47.796Z,18.20
2022-08-05T20:18:10.556Z,18.20
2022-08-05T20:20:55.074Z,18.10
2022-08-05T20:23:44.502Z,18.00
2022-08-05T20:26:16.097Z,18.00
2022-08-05T20:28:48.566Z,17.90
2022-08-05T20:31:17.001Z,17.90
2022-08-05T20:33:45.072Z,17.80
2022-08-05T20:36:19.727Z,17.80
2022-08-05T20:38:54.369Z,17.70
2022-08-05T20:41:43.805Z,17.70
2022-08-05T20:44:18.531Z,17.60
2022-08-05T20:46:57.754Z,17.60
2022-08-05T20:49:26.148Z,17.50
2022-08-05T20:51:55.248Z,17.50
2022-08-05T20:54:25.198Z,17.40
2022-08-05T20:56:52.968Z,17.40
2022-08-05T20:59:26.427Z,17.30
2022-08-05T21:01:57.261Z,17.30
2022-08-05T21:04:27.014Z,17.20
2022-08-05T21:06:55.035Z,17.10
2022-08-05T21:09:23.136Z,17.10
2022-08-05T21:12:06.952Z,17.00
2022-08-05T21:14:39.659Z,17.00
2022-08-05T21:17:06.861Z,17.00
2022-08-05T21:19:46.694Z,16.90
2022-08-05T21:22:21.831Z,16.90
2022-08-05T21:24:52.732Z,16.90
2022-08-05T21:27:25.560Z,16.80
2022-08-05T21:29:58.224Z,16.80
2022-08-05T21:32:29.266Z,16.80
2022-08-05T21:35:08.481Z,16.70
2022-08-05T21:37:52.635Z,16.60
2022-08-05T21:40:24.340Z,16.60
2022-08-05T21:42:53.000Z,16.50
2022-08-05T21:45:26.550Z,16.50
2022-08-05T21:48:11.034Z,16.40
2022-08-05T21:50:41.681Z,16.40
2022-08-05T21:53:20.163Z,16.40
2022-08-05T21:56:05.543Z,16.30
2022-08-05T21:58:34.150Z,16.30
2022-08-05T22:01:06.927Z,16.20
2022-08-05T22:03:51.969Z,16.20
2022-08-05T22:06:22.331Z,16.20
2022-08-05T22:08:52.102Z,16.10
2022-08-05T22:11:35.372Z,16.00
2022-08-05T22:14:18.238Z,16.00
2022-08-05T22:16:53.043Z,16.00
2022-08-05T22:20:02.801Z,15.90
2022-08-05T22:22:11.867Z,15.90
2022-08-05T22:24:57.641Z,15.90
2022-08-05T22:28:08.048Z,15.80
2022-08-05T22:30:35.097Z,15.80
2022-08-05T22:33:15.484Z,15.90
2022-08-05T22:35:48.718Z,15.80
2022-08-05T22:38:17.150Z,15.70
2022-08-05T22:40:49.463Z,15.70
2022-08-05T22:43:36.305Z,15.60
2022-08-05T22:46:09.059Z,15.60
2022-08-05T22:48:40.569Z,15.60
2022-08-05T22:51:08.149Z,15.50
2022-08-05T22:53:50.888Z,15.50
2022-08-05T22:56:30.272Z,15.50
2022-08-05T22:58:59.846Z,15.50
2022-08-05T23:02:04.688Z,15.50
2022-08-05T23:04:16.690Z,15.50
2022-08-05T23:06:43.679Z,15.50
2022-08-05T23:09:26.988Z,15.40
2022-08-05T23:11:59.741Z,15.40
2022-08-05T23:14:32.224Z,15.40
2022-08-05T23:17:24.073Z,15.30
2022-08-05T23:20:01.058Z,15.30
2022-08-05T23:22:29.650Z,15.20
2022-08-05T23:24:57.864Z,15.20
2022-08-05T23:27:28.888Z,15.20
2022-08-05T23:29:58.639Z,15.20
2022-08-05T23:32:27.025Z,15.10
2022-08-05T23:34:54.306Z,15.20
2022-08-05T23:37:21.246Z,15.10
2022-08-05T23:39:54.349Z,15.10
2022-08-05T23:42:29.034Z,15.00
2022-08-05T23:44:57.332Z,15.00
2022-08-05T23:47:25.306Z,14.90
2022-08-05T23:49:55.661Z,15.00
2022-08-05T23:52:26.944Z,14.90
2022-08-05T23:54:56.711Z,14.80
2022-08-05T23:57:24.541Z,14.80
